Time;durP1;ratioP1;P1;durP2;ratioP2;P2;SDS_P1;SDS_P2;PMS_P1;PMS_P2;Temp;Humidity;BMP_temperature;BMP_pressure;BME280_temperature;BME280_humidity;BME280_pressure;Samples;Min_cycle;Max_cycle;Signal;HPM_P1;HPM_P2
2022/08/08 00:02:20;;;;;;;3.72;2.30;;;16.50;99.90;;;;;;5034251;28;37854;-77
2022/08/08 00:05:09;;;;;;;4.55;2.15;;;16.50;99.90;;;;;;5044755;28;47240;-79
2022/08/08 00:07:49;;;;;;;3.80;2.13;;;16.50;99.90;;;;;;5030832;28;47347;-80
2022/08/08 00:10:28;;;;;;;5.18;2.17;;;16.50;99.90;;;;;;5048703;28;38917;-79
2022/08/08 00:13:18;;;;;;;5.47;2.42;;;16.40;99.90;;;;;;5042716;28;37243;-79
2022/08/08 00:16:12;;;;;;;4.53;2.47;;;16.40;99.90;;;;;;5067406;28;47530;-78
2022/08/08 00:19:02;;;;;;;4.15;2.67;;;16.40;99.90;;;;;;5029647;28;48105;-78
2022/08/08 00:21:44;;;;;;;4.68;2.40;;;16.30;99.90;;;;;;5016407;28;47264;-78
2022/08/08 00:24:19;;;;;;;3.70;2.43;;;16.30;99.90;;;;;;5008583;28;38199;-77
2022/08/08 00:26:51;;;;;;;5.13;2.03;;;16.30;99.90;;;;;;5028613;28;37318;-77
2022/08/08 00:29:24;;;;;;;4.10;2.15;;;16.30;99.90;;;;;;5013601;28;40356;-76
2022/08/08 00:31:57;;;;;;;6.22;2.72;;;16.20;99.90;;;;;;5017426;28;38376;-76
2022/08/08 00:37:26;;;;;;;4.82;2.30;;;16.20;99.90;;;;;;5019565;28;39058;-76
2022/08/08 00:40:23;;;;;;;4.57;2.40;;;16.20;99.90;;;;;;5022026;28;39647;-76
2022/08/08 00:42:58;;;;;;;4.03;2.38;;;16.10;99.90;;;;;;5024523;27;48891;-78
2022/08/08 00:45:56;;;;;;;3.15;2.15;;;16.20;99.90;;;;;;5022130;28;38084;-78
2022/08/08 00:48:49;;;;;;;7.15;2.60;;;16.20;99.90;;;;;;5026661;28;37221;-79
2022/08/08 00:51:30;;;;;;;4.07;1.95;;;16.10;99.90;;;;;;5020583;28;38481;-77
2022/08/08 00:54:22;;;;;;;5.05;2.58;;;16.10;99.90;;;;;;5032408;28;39589;-78
2022/08/08 00:57:03;;;;;;;4.00;2.45;;;16.10;99.90;;;;;;5029568;28;47358;-77
2022/08/08 01:00:04;;;;;;;7.97;2.65;;;16.10;99.90;;;;;;5010293;28;48535;-80
2022/08/08 01:02:54;;;;;;;5.60;2.13;;;16.10;99.90;;;;;;5024344;28;47220;-77
2022/08/08 01:05:48;;;;;;;5.22;2.30;;;16.00;99.90;;;;;;5020651;28;39113;-78
2022/08/08 01:08:43;;;;;;;4.38;2.47;;;16.00;99.90;;;;;;5019249;28;39236;-77
2022/08/08 01:11:24;;;;;;;4.78;2.20;;;16.00;99.90;;;;;;5049579;27;38057;-77
2022/08/08 01:14:08;;;;;;;4.97;2.00;;;16.00;99.90;;;;;;5046582;28;39828;-78
2022/08/08 01:16:53;;;;;;;3.25;1.95;;;16.00;99.90;;;;;;5053798;28;46499;-78
2022/08/08 01:19:57;;;;;;;4.03;2.28;;;16.00;99.90;;;;;;5043818;27;37011;-78
2022/08/08 01:22:47;;;;;;;2.55;2.22;;;16.00;99.90;;;;;;5039361;28;37622;-79
2022/08/08 01:25:50;;;;;;;3.33;2.10;;;16.00;99.90;;;;;;5044378;27;40498;-77
2022/08/08 01:28:36;;;;;;;4.18;2.33;;;15.90;99.90;;;;;;5033605;28;38181;-79
2022/08/08 01:31:18;;;;;;;5.28;2.80;;;15.80;99.90;;;;;;5033983;28;37786;-80
2022/08/08 01:34:03;;;;;;;5.18;2.05;;;15.80;99.90;;;;;;5051069;28;37891;-77
2022/08/08 01:36:54;;;;;;;3.72;2.03;;;15.80;99.90;;;;;;5031947;28;47160;-79
2022/08/08 01:39:52;;;;;;;3.83;2.05;;;15.70;99.90;;;;;;5036039;28;38284;-77
2022/08/08 01:42:24;;;;;;;4.03;2.28;;;15.70;99.90;;;;;;5044807;27;38422;-78
2022/08/08 01:45:08;;;;;;;4.57;2.33;;;15.70;99.90;;;;;;5029061;28;36867;-78
2022/08/08 01:47:37;;;;;;;4.80;2.00;;;15.70;99.90;;;;;;5038148;28;48555;-78
2022/08/08 01:50:32;;;;;;;2.65;1.77;;;15.70;99.90;;;;;;5037171;27;37825;-78
2022/08/08 01:53:03;;;;;;;3.38;2.00;;;15.70;99.90;;;;;;5031240;28;35712;-77
2022/08/08 01:56:02;;;;;;;4.97;2.10;;;15.60;99.90;;;;;;5034981;28;47161;-77
2022/08/08 01:58:39;;;;;;;2.60;1.98;;;15.60;99.90;;;;;;5033212;28;47112;-77
2022/08/08 02:01:28;;;;;;;3.78;2.42;;;15.50;99.90;;;;;;5043385;28;39661;-79
2022/08/08 02:04:19;;;;;;;5.80;3.30;;;15.50;99.90;;;;;;5057727;28;38080;-80
2022/08/08 02:07:05;;;;;;;5.18;2.13;;;15.50;99.90;;;;;;5044044;28;49040;-78
2022/08/08 02:10:14;;;;;;;3.65;2.22;;;15.40;99.90;;;;;;5042456;27;49588;-79
2022/08/08 02:13:00;;;;;;;3.50;2.38;;;15.30;99.90;;;;;;5041871;28;47375;-79
2022/08/08 02:15:55;;;;;;;3.45;2.38;;;15.30;99.90;;;;;;5042857;28;39134;-78
2022/08/08 02:18:46;;;;;;;3.67;2.30;;;15.20;99.90;;;;;;5054099;28;37734;-79
2022/08/08 02:24:19;;;;;;;5.32;2.08;;;15.20;99.90;;;;;;5039228;27;39903;-79
2022/08/08 02:27:02;;;;;;;2.75;2.33;;;15.10;99.90;;;;;;5045776;28;38764;-79
2022/08/08 02:29:47;;;;;;;6.15;2.38;;;15.00;99.90;;;;;;5067057;28;47222;-79
2022/08/08 02:32:34;;;;;;;3.17;2.13;;;15.00;99.90;;;;;;5038412;28;38494;-78
2022/08/08 02:35:13;;;;;;;4.68;2.67;;;14.90;99.90;;;;;;5043738;28;38170;-78
2022/08/08 02:37:57;;;;;;;2.35;2.13;;;14.90;99.90;;;;;;5039197;28;49571;-80
2022/08/08 02:40:40;;;;;;;4.53;2.58;;;14.90;99.90;;;;;;5057887;28;37974;-78
2022/08/08 02:43:48;;;;;;;4.63;2.15;;;14.80;99.90;;;;;;5044165;28;38760;-78
2022/08/08 02:46:36;;;;;;;3.00;1.80;;;14.80;99.90;;;;;;5040950;28;38958;-78
2022/08/08 02:49:35;;;;;;;2.92;2.40;;;14.80;99.90;;;;;;5043491;28;39957;-77
2022/08/08 02:52:13;;;;;;;5.07;2.58;;;14.70;99.90;;;;;;5038757;27;37305;-79
2022/08/08 02:54:58;;;;;;;5.78;2.72;;;14.70;99.90;;;;;;5062743;28;39358;-77
2022/08/08 02:57:47;;;;;;;3.42;2.20;;;14.70;99.90;;;;;;5042755;28;39708;-78
2022/08/08 03:00:51;;;;;;;4.28;2.30;;;14.60;99.90;;;;;;5037184;28;38730;-78
2022/08/08 03:03:40;;;;;;;2.35;2.15;;;14.60;99.90;;;;;;5037612;28;37919;-77
2022/08/08 03:06:45;;;;;;;3.50;2.38;;;14.60;99.90;;;;;;5039461;27;38534;-78
2022/08/08 03:09:33;;;;;;;4.63;2.10;;;14.60;99.90;;;;;;5037733;28;37457;-78
2022/08/08 03:12:27;;;;;;;4.13;2.40;;;14.60;99.90;;;;;;5051284;28;38042;-78
2022/08/08 03:15:00;;;;;;;4.68;2.65;;;14.60;99.90;;;;;;5018661;28;47193;-77
2022/08/08 03:17:36;;;;;;;4.15;2.58;;;14.60;99.90;;;;;;5025206;28;39622;-78
2022/08/08 03:20:05;;;;;;;4.18;2.55;;;14.60;99.90;;;;;;4997780;28;38685;-79
2022/08/08 03:22:34;;;;;;;4.38;2.35;;;14.60;99.90;;;;;;5020515;28;47289;-78
2022/08/08 03:25:05;;;;;;;3.95;2.58;;;14.50;99.90;;;;;;5019937;28;37024;-78
2022/08/08 03:27:43;;;;;;;3.58;2.60;;;14.50;99.90;;;;;;5008768;28;47336;-78
2022/08/08 03:30:13;;;;;;;3.97;2.17;;;14.50;99.90;;;;;;5014298;28;38944;-79
2022/08/08 03:35:26;;;;;;;8.07;2.80;;;14.60;99.90;;;;;;5019707;28;40189;-78
2022/08/08 03:37:53;;;;;;;3.97;2.60;;;14.60;99.90;;;;;;5016450;28;38902;-78
2022/08/08 03:40:20;;;;;;;4.82;2.95;;;14.70;99.90;;;;;;5016536;28;38280;-78
2022/08/08 03:42:47;;;;;;;4.85;2.40;;;14.60;99.90;;;;;;5015093;28;38105;-78
2022/08/08 03:45:21;;;;;;;6.15;2.67;;;14.70;99.90;;;;;;5019993;28;36314;-80
2022/08/08 03:48:01;;;;;;;4.00;2.80;;;14.60;99.90;;;;;;5021242;28;37715;-78
2022/08/08 03:50:29;;;;;;;3.65;2.38;;;14.60;99.90;;;;;;5020073;28;48258;-79
2022/08/08 03:53:07;;;;;;;6.32;3.00;;;14.60;99.90;;;;;;5020085;28;37590;-77
2022/08/08 03:55:41;;;;;;;5.32;2.90;;;14.60;99.90;;;;;;5020595;28;48815;-78
2022/08/08 03:58:08;;;;;;;5.78;3.80;;;14.60;99.90;;;;;;5017283;28;39803;-79
2022/08/08 04:00:35;;;;;;;5.43;3.30;;;14.70;99.90;;;;;;5027139;28;37207;-78
2022/08/08 04:03:06;;;;;;;5.22;3.08;;;14.60;99.90;;;;;;5020499;28;37837;-79
2022/08/08 04:05:37;;;;;;;4.25;2.92;;;14.60;99.90;;;;;;5025275;28;37512;-77
2022/08/08 04:08:06;;;;;;;3.38;2.70;;;14.60;99.90;;;;;;5020090;28;37872;-78
2022/08/08 04:10:33;;;;;;;5.20;2.80;;;14.60;99.90;;;;;;5023454;28;38277;-77
2022/08/08 04:13:01;;;;;;;4.10;2.70;;;14.50;99.90;;;;;;5029197;28;38724;-78
2022/08/08 04:15:27;;;;;;;5.43;3.03;;;14.50;99.90;;;;;;5026453;28;47260;-78
2022/08/08 04:17:53;;;;;;;6.93;3.53;;;14.50;99.90;;;;;;5026342;28;38741;-78
2022/08/08 04:20:19;;;;;;;4.65;3.05;;;14.50;99.90;;;;;;5015973;28;39250;-77
2022/08/08 04:22:46;;;;;;;4.88;2.88;;;14.50;99.90;;;;;;5021803;28;38151;-78
2022/08/08 04:25:12;;;;;;;4.45;3.20;;;14.50;99.90;;;;;;5031646;28;37910;-78
2022/08/08 04:27:38;;;;;;;5.68;3.78;;;14.50;99.90;;;;;;5022243;28;38865;-78
2022/08/08 04:30:05;;;;;;;5.82;3.72;;;14.50;99.90;;;;;;5025217;28;38715;-79
2022/08/08 04:32:32;;;;;;;7.28;2.85;;;14.40;99.90;;;;;;5018434;28;36492;-79
2022/08/08 04:34:58;;;;;;;5.70;3.50;;;14.50;99.90;;;;;;5022304;28;36541;-78
2022/08/08 04:37:24;;;;;;;4.68;2.83;;;14.40;99.90;;;;;;5017816;28;38287;-78
2022/08/08 04:39:50;;;;;;;4.65;3.22;;;14.40;99.90;;;;;;5030461;28;40199;-77
2022/08/08 04:42:16;;;;;;;4.25;2.78;;;14.40;99.90;;;;;;5022813;28;38283;-77
2022/08/08 04:44:43;;;;;;;4.30;2.97;;;14.50;99.90;;;;;;5025049;28;37501;-78
2022/08/08 04:47:09;;;;;;;4.38;2.83;;;14.50;99.90;;;;;;5024635;28;39705;-78
2022/08/08 04:49:35;;;;;;;5.40;2.97;;;14.50;99.90;;;;;;5023079;28;38714;-78
2022/08/08 04:52:01;;;;;;;3.97;3.10;;;14.50;99.90;;;;;;5019302;28;38448;-78
2022/08/08 04:54:27;;;;;;;5.15;3.10;;;14.50;99.90;;;;;;5015574;28;38372;-77
2022/08/08 04:56:53;;;;;;;7.32;3.22;;;14.50;99.90;;;;;;5020202;28;39127;-78
2022/08/08 04:59:20;;;;;;;5.15;3.72;;;14.50;99.90;;;;;;5020744;27;38230;-78
2022/08/08 05:01:46;;;;;;;4.65;3.50;;;14.50;99.90;;;;;;5026514;28;38400;-78
2022/08/08 05:04:12;;;;;;;4.35;3.17;;;14.50;99.90;;;;;;5028393;27;38685;-79
2022/08/08 05:06:38;;;;;;;5.05;2.83;;;14.60;99.90;;;;;;5026120;28;39589;-79
2022/08/08 05:09:04;;;;;;;5.28;3.22;;;14.60;99.90;;;;;;5019233;28;38758;-78
2022/08/08 05:11:31;;;;;;;3.80;2.88;;;14.60;99.90;;;;;;5024047;28;36861;-78
2022/08/08 05:13:57;;;;;;;4.40;2.80;;;14.60;99.90;;;;;;5045033;27;37520;-77
2022/08/08 05:16:23;;;;;;;4.03;3.00;;;14.70;99.90;;;;;;5013797;28;40478;-77
2022/08/08 05:18:49;;;;;;;5.35;3.00;;;14.70;99.90;;;;;;5023717;28;41689;-78
2022/08/08 05:21:15;;;;;;;5.30;3.08;;;14.80;99.90;;;;;;5021858;28;37557;-79
2022/08/08 05:23:41;;;;;;;4.30;3.13;;;14.80;99.90;;;;;;5022894;28;38253;-79
2022/08/08 05:26:07;;;;;;;4.88;3.00;;;14.90;99.90;;;;;;5029707;28;38569;-79
2022/08/08 05:28:34;;;;;;;4.05;2.70;;;15.00;99.90;;;;;;5056484;28;38982;-79
2022/08/08 05:31:00;;;;;;;4.18;2.60;;;15.00;99.90;;;;;;5049065;28;36655;-79
2022/08/08 05:33:26;;;;;;;8.65;2.90;;;15.10;99.90;;;;;;5002119;27;37795;-79
2022/08/08 05:35:52;;;;;;;4.75;3.03;;;15.10;99.90;;;;;;5007831;28;39349;-79
2022/08/08 05:38:20;;;;;;;4.43;2.80;;;15.20;99.90;;;;;;5044555;28;39016;-79
2022/08/08 05:40:50;;;;;;;7.75;3.30;;;15.30;99.90;;;;;;5014806;28;38414;-79
2022/08/08 05:43:26;;;;;;;5.18;2.42;;;15.30;99.90;;;;;;5006907;28;37456;-80
2022/08/08 05:46:02;;;;;;;5.07;2.58;;;15.40;99.90;;;;;;5026704;28;40446;-79
2022/08/08 05:48:28;;;;;;;4.57;2.78;;;15.50;99.90;;;;;;5043881;28;47034;-79
2022/08/08 05:50:54;;;;;;;9.40;3.13;;;15.60;99.90;;;;;;5015906;28;38234;-80
2022/08/08 05:53:24;;;;;;;4.90;3.03;;;15.70;99.90;;;;;;5009344;28;37701;-80
2022/08/08 05:55:53;;;;;;;6.68;3.05;;;15.80;99.90;;;;;;5012978;28;38306;-79
2022/08/08 05:58:24;;;;;;;10.07;4.28;;;15.90;99.90;;;;;;5008256;28;36917;-79
2022/08/08 06:00:52;;;;;;;2.33;2.00;;;16.10;99.90;;;;;;5016029;28;37704;-76
2022/08/08 06:03:19;;;;;;;8.77;3.63;;;16.20;99.90;;;;;;5013504;28;37712;-78
2022/08/08 06:06:05;;;;;;;5.95;2.97;;;16.50;99.90;;;;;;5053941;27;39698;-79
2022/08/08 06:08:36;;;;;;;7.75;3.17;;;16.70;99.90;;;;;;5046308;28;46890;-78
2022/08/08 06:11:04;;;;;;;6.97;3.33;;;16.70;99.90;;;;;;5024749;28;38908;-78
2022/08/08 06:13:30;;;;;;;7.38;3.40;;;16.80;99.90;;;;;;5028448;27;38178;-76
2022/08/08 06:15:57;;;;;;;7.30;3.42;;;16.90;99.90;;;;;;5035993;28;39742;-77
2022/08/08 06:18:24;;;;;;;9.95;4.22;;;16.90;99.90;;;;;;5022526;28;40274;-77
2022/08/08 06:20:53;;;;;;;9.02;4.13;;;17.00;99.90;;;;;;5021415;28;38648;-77
2022/08/08 06:23:20;;;;;;;7.60;3.35;;;17.10;99.90;;;;;;5027518;28;36515;-78
2022/08/08 06:25:58;;;;;;;8.70;3.55;;;17.20;99.90;;;;;;5031659;28;39035;-77
2022/08/08 06:28:40;;;;;;;9.88;3.70;;;17.40;99.90;;;;;;5021782;27;39987;-76
2022/08/08 06:31:09;;;;;;;9.48;2.90;;;17.50;99.90;;;;;;5017279;28;37808;-77
2022/08/08 06:33:56;;;;;;;6.65;3.08;;;17.70;99.90;;;;;;5026486;28;37236;-76
2022/08/08 06:36:42;;;;;;;9.85;3.70;;;17.80;99.90;;;;;;5028604;27;39848;-78
2022/08/08 06:39:10;;;;;;;9.40;4.22;;;18.00;99.90;;;;;;5051556;28;39139;-76
2022/08/08 06:41:44;;;;;;;7.00;4.15;;;18.10;99.90;;;;;;5026517;27;37370;-79
2022/08/08 06:44:14;;;;;;;8.05;4.65;;;18.30;99.90;;;;;;5063082;28;37991;-76
2022/08/08 06:46:40;;;;;;;10.15;4.80;;;18.40;99.90;;;;;;5025517;28;39029;-76
2022/08/08 06:49:06;;;;;;;8.80;5.00;;;18.60;99.90;;;;;;5021390;28;39211;-75
2022/08/08 06:51:34;;;;;;;7.88;4.15;;;18.80;99.90;;;;;;5061339;28;39323;-75
2022/08/08 06:54:03;;;;;;;10.32;5.00;;;19.00;99.90;;;;;;5030288;28;37105;-76
2022/08/08 06:56:30;;;;;;;7.75;3.75;;;19.20;99.90;;;;;;5036208;28;48538;-76
2022/08/08 06:58:56;;;;;;;9.02;4.25;;;19.40;99.90;;;;;;5031794;28;38089;-76
2022/08/08 07:01:32;;;;;;;9.43;4.45;;;19.60;99.90;;;;;;5020279;28;38632;-77
2022/08/08 07:04:14;;;;;;;10.82;4.70;;;19.80;99.90;;;;;;5015107;28;37101;-76
2022/08/08 07:06:45;;;;;;;5.97;3.90;;;19.90;99.90;;;;;;5012634;28;46742;-77
2022/08/08 07:09:20;;;;;;;6.18;2.65;;;20.10;99.90;;;;;;5017955;28;37964;-77
2022/08/08 07:11:52;;;;;;;3.75;2.65;;;20.10;99.90;;;;;;5019724;28;37180;-80
2022/08/08 07:14:28;;;;;;;6.20;3.22;;;20.50;99.90;;;;;;5024769;28;37939;-76
2022/08/08 07:17:08;;;;;;;7.13;2.92;;;20.70;99.90;;;;;;5016493;28;40455;-76
2022/08/08 07:19:34;;;;;;;6.93;3.28;;;20.90;99.90;;;;;;5019373;28;48068;-76
2022/08/08 07:22:05;;;;;;;8.27;2.78;;;21.10;99.90;;;;;;5018436;27;38474;-78
2022/08/08 07:24:43;;;;;;;5.65;2.05;;;21.20;99.90;;;;;;5021429;28;47212;-78
2022/08/08 07:27:14;;;;;;;3.60;1.83;;;21.30;99.90;;;;;;5019380;28;39544;-78
2022/08/08 07:29:41;;;;;;;7.18;2.08;;;21.30;99.90;;;;;;5019489;28;39764;-80
2022/08/08 07:32:09;;;;;;;4.05;1.85;;;21.40;99.90;;;;;;5029591;28;39328;-78
2022/08/08 07:34:35;;;;;;;8.43;2.38;;;21.40;99.90;;;;;;5017597;28;38156;-77
2022/08/08 07:37:04;;;;;;;4.60;1.70;;;21.50;99.90;;;;;;5019898;28;38872;-77
2022/08/08 07:39:31;;;;;;;8.52;2.25;;;21.40;99.90;;;;;;5021566;28;39388;-78
2022/08/08 07:41:58;;;;;;;4.45;1.50;;;21.30;99.90;;;;;;5017015;28;39820;-77
2022/08/08 07:44:26;;;;;;;5.13;1.92;;;21.50;99.90;;;;;;5030986;28;36862;-76
2022/08/08 07:46:53;;;;;;;5.05;2.17;;;21.70;99.90;;;;;;5036669;28;39016;-78
2022/08/08 07:49:19;;;;;;;4.90;1.70;;;21.90;99.90;;;;;;5052818;27;38532;-78
2022/08/08 07:51:45;;;;;;;7.28;2.50;;;22.10;99.90;;;;;;5049474;28;38552;-77
2022/08/08 07:54:11;;;;;;;3.22;1.60;;;22.20;99.90;;;;;;5046957;28;36643;-76
2022/08/08 07:57:30;;;;;;;2.22;1.20;;;22.50;99.90;;;;;;5045585;28;39989;-76
2022/08/08 08:00:08;;;;;;;9.13;1.45;;;22.70;99.90;;;;;;4972936;28;47085;-78
2022/08/08 08:02:42;;;;;;;4.13;1.60;;;22.70;99.90;;;;;;5037812;28;47576;-76
2022/08/08 08:05:17;;;;;;;4.25;1.38;;;22.60;99.90;;;;;;5020313;28;39337;-77
2022/08/08 08:07:47;;;;;;;5.63;1.92;;;22.60;99.90;;;;;;5036058;28;39149;-77
2022/08/08 08:10:17;;;;;;;4.20;1.65;;;22.70;99.90;;;;;;5016758;28;37663;-76
2022/08/08 08:12:52;;;;;;;4.80;1.50;;;22.70;99.90;;;;;;5017410;28;37888;-76
2022/08/08 08:15:21;;;;;;;4.93;1.48;;;22.70;99.90;;;;;;5019043;28;38336;-75
2022/08/08 08:17:48;;;;;;;6.85;1.80;;;22.80;99.90;;;;;;5023601;28;39396;-76
2022/08/08 08:20:18;;;;;;;4.10;1.52;;;23.00;99.90;;;;;;5017532;28;40233;-77
2022/08/08 08:22:45;;;;;;;4.57;1.33;;;23.00;99.90;;;;;;5014677;28;38293;-76
2022/08/08 08:25:11;;;;;;;5.90;1.90;;;23.30;99.90;;;;;;5046644;28;36950;-77
2022/08/08 08:27:37;;;;;;;4.75;1.70;;;23.20;99.90;;;;;;5017576;28;38781;-78
2022/08/08 08:30:04;;;;;;;4.38;1.33;;;23.30;99.90;;;;;;5051072;28;38872;-76
2022/08/08 08:32:31;;;;;;;4.90;1.45;;;23.50;99.90;;;;;;5021495;28;46827;-77
2022/08/08 08:34:58;;;;;;;3.95;1.23;;;23.40;99.90;;;;;;5025317;28;36071;-76
2022/08/08 08:37:24;;;;;;;3.53;1.63;;;23.40;99.90;;;;;;5024816;28;39933;-76
2022/08/08 08:39:50;;;;;;;3.45;1.08;;;23.00;99.90;;;;;;5036035;28;39949;-77
2022/08/08 08:42:17;;;;;;;3.67;1.20;;;23.20;99.90;;;;;;5021142;28;38727;-79
2022/08/08 08:44:43;;;;;;;2.70;1.10;;;23.40;99.90;;;;;;5025516;28;39767;-76
2022/08/08 08:47:10;;;;;;;5.90;1.38;;;23.50;99.90;;;;;;5032538;28;39982;-77
2022/08/08 08:49:36;;;;;;;1.95;0.95;;;23.80;99.90;;;;;;5053119;28;37667;-77
2022/08/08 08:52:03;;;;;;;4.03;1.30;;;24.10;99.90;;;;;;5022272;28;38834;-77
2022/08/08 08:54:33;;;;;;;3.78;1.55;;;23.90;99.90;;;;;;5014838;28;37939;-79
2022/08/08 08:57:02;;;;;;;3.28;1.42;;;23.90;99.90;;;;;;5010735;28;38273;-76
2022/08/08 08:59:33;;;;;;;2.67;1.17;;;23.80;99.90;;;;;;5028945;28;47136;-77
2022/08/08 09:02:01;;;;;;;2.92;1.25;;;23.40;99.90;;;;;;5024868;28;38187;-76
2022/08/08 09:04:33;;;;;;;4.90;1.73;;;23.60;99.90;;;;;;5038631;28;47118;-77
2022/08/08 09:07:01;;;;;;;;;;;23.90;99.90;;;;;;5042360;28;38935;-77
2022/08/08 09:09:30;;;;;;;7.75;1.85;;;23.80;99.90;;;;;;5040887;28;49913;-77
2022/08/08 09:12:00;;;;;;;4.47;1.40;;;23.50;99.90;;;;;;5054074;28;39311;-77
2022/08/08 09:14:26;;;;;;;2.80;1.50;;;23.20;99.90;;;;;;5042797;28;36058;-76
2022/08/08 09:16:53;;;;;;;3.10;1.52;;;23.00;99.90;;;;;;5068942;28;39127;-76
2022/08/08 09:19:19;;;;;;;3.97;1.55;;;22.90;99.90;;;;;;5049698;27;38459;-76
2022/08/08 09:21:46;;;;;;;4.93;1.50;;;22.80;99.90;;;;;;5039879;27;38383;-76
2022/08/08 09:24:14;;;;;;;5.72;1.48;;;22.70;99.90;;;;;;5035116;28;37713;-76
2022/08/08 09:27:00;;;;;;;3.00;1.85;;;22.60;99.90;;;;;;5031431;28;38941;-76
2022/08/08 09:29:30;;;;;;;3.60;1.90;;;22.20;99.90;;;;;;5048093;28;39233;-76
2022/08/08 09:32:05;;;;;;;3.38;1.80;;;22.00;99.90;;;;;;5040126;28;37402;-76
2022/08/08 09:34:33;;;;;;;5.30;2.03;;;22.00;99.90;;;;;;5044604;28;48432;-76
2022/08/08 09:37:07;;;;;;;2.97;1.33;;;22.20;99.90;;;;;;5040005;28;39410;-76
2022/08/08 09:40:00;;;;;;;3.15;1.20;;;22.80;99.90;;;;;;5071041;27;46925;-76
2022/08/08 09:42:35;;;;;;;2.00;0.90;;;23.50;99.90;;;;;;5049226;28;38760;-75
2022/08/08 09:45:09;;;;;;;2.50;0.90;;;24.00;99.90;;;;;;5042266;28;38793;-77
2022/08/08 09:47:37;;;;;;;2.67;0.95;;;23.80;99.90;;;;;;5056625;28;48961;-76
2022/08/08 09:50:07;;;;;;;2.42;1.15;;;23.80;99.90;;;;;;5050741;27;39170;-77
2022/08/08 09:52:35;;;;;;;4.38;1.38;;;23.80;99.90;;;;;;5054267;27;38312;-76
2022/08/08 09:55:01;;;;;;;3.17;1.23;;;23.70;99.90;;;;;;5046011;28;37436;-76
2022/08/08 09:57:35;;;;;;;3.67;1.27;;;23.80;99.90;;;;;;5053673;28;39588;-76
2022/08/08 10:00:10;;;;;;;2.33;0.90;;;24.10;99.90;;;;;;5050065;28;40042;-76
2022/08/08 10:02:39;;;;;;;1.77;1.00;;;23.90;99.90;;;;;;5049500;28;49699;-77
2022/08/08 10:05:15;;;;;;;1.35;0.77;;;23.70;99.90;;;;;;5044353;28;37177;-77
2022/08/08 10:07:50;;;;;;;3.55;0.82;;;23.60;99.90;;;;;;5044188;27;39608;-76
2022/08/08 10:10:26;;;;;;;1.70;0.90;;;23.60;99.90;;;;;;5050844;28;37910;-76
2022/08/08 10:12:53;;;;;;;5.75;1.70;;;23.60;99.90;;;;;;5048447;27;37860;-76
2022/08/08 10:15:20;;;;;;;3.72;1.10;;;23.60;99.90;;;;;;5043392;28;36728;-75
2022/08/08 10:17:49;;;;;;;4.35;1.00;;;23.50;99.90;;;;;;5046627;28;40538;-75
2022/08/08 10:20:16;;;;;;;3.65;1.60;;;23.30;99.90;;;;;;5048751;27;39530;-76
2022/08/08 10:23:06;;;;;;;2.95;1.20;;;23.30;99.90;;;;;;5047383;28;38885;-77
2022/08/08 10:25:34;;;;;;;2.10;0.75;;;23.20;99.90;;;;;;5047293;28;47327;-76
2022/08/08 10:28:01;;;;;;;3.15;1.00;;;23.10;99.90;;;;;;5057095;27;38791;-76
2022/08/08 10:30:27;;;;;;;1.75;1.20;;;23.00;99.90;;;;;;5046860;28;47586;-78
2022/08/08 10:32:57;;;;;;;3.42;1.10;;;22.90;99.90;;;;;;5045113;28;37227;-76
2022/08/08 10:35:29;;;;;;;4.07;1.30;;;22.90;99.90;;;;;;5046660;27;37021;-76
2022/08/08 10:38:02;;;;;;;3.25;1.13;;;23.00;99.90;;;;;;5055032;28;39323;-76
2022/08/08 10:40:30;;;;;;;4.00;1.02;;;22.90;99.90;;;;;;5078748;27;47179;-76
2022/08/08 10:42:59;;;;;;;1.83;0.70;;;23.10;99.90;;;;;;5046264;28;38738;-76
2022/08/08 10:45:26;;;;;;;3.10;0.77;;;23.50;99.90;;;;;;5046676;27;39261;-76
2022/08/08 10:47:54;;;;;;;2.70;1.00;;;23.80;99.90;;;;;;5046666;28;39895;-76
2022/08/08 10:50:21;;;;;;;4.85;1.00;;;24.00;99.90;;;;;;5043920;28;38679;-76
2022/08/08 10:52:47;;;;;;;2.67;0.80;;;24.10;99.90;;;;;;5047581;28;38083;-76
2022/08/08 10:55:19;;;;;;;2.47;1.00;;;23.90;99.90;;;;;;5044586;28;37720;-76
2022/08/08 10:57:49;;;;;;;3.75;1.00;;;23.70;99.90;;;;;;5039532;27;39539;-76
2022/08/08 11:00:24;;;;;;;4.18;1.27;;;23.80;99.90;;;;;;5047910;28;38365;-76
2022/08/08 11:02:52;;;;;;;2.22;0.90;;;23.90;99.90;;;;;;5045939;28;39602;-78
2022/08/08 11:05:19;;;;;;;3.75;1.05;;;24.20;99.90;;;;;;5048100;28;36240;-78
2022/08/08 11:07:49;;;;;;;2.78;0.90;;;24.40;99.90;;;;;;5051019;28;39369;-78
2022/08/08 11:10:20;;;;;;;1.90;0.70;;;24.70;99.90;;;;;;5054851;28;37222;-79
2022/08/08 11:12:58;;;;;;;3.40;0.80;;;25.20;99.90;;;;;;5078195;27;38819;-75
2022/08/08 11:15:28;;;;;;;1.83;0.82;;;25.70;99.90;;;;;;5046168;27;36001;-76
2022/08/08 11:17:55;;;;;;;4.13;1.10;;;26.00;99.90;;;;;;5054174;28;39333;-75
2022/08/08 11:20:26;;;;;;;2.45;0.70;;;26.10;99.90;;;;;;5050225;28;38909;-76
2022/08/08 11:23:00;;;;;;;5.68;0.75;;;25.80;99.90;;;;;;5050068;27;38394;-76
2022/08/08 11:25:31;;;;;;;5.70;0.70;;;25.90;99.90;;;;;;5057976;28;45761;-76
2022/08/08 11:27:59;;;;;;;4.05;0.50;;;26.10;99.90;;;;;;5043811;28;38799;-76
2022/08/08 11:30:33;;;;;;;4.07;1.08;;;26.50;99.90;;;;;;5038060;27;38578;-76
2022/08/08 11:33:03;;;;;;;2.88;0.82;;;26.30;99.90;;;;;;5047346;28;38737;-76
2022/08/08 11:35:30;;;;;;;0.95;0.70;;;25.50;99.90;;;;;;5044960;28;47211;-76
2022/08/08 11:37:56;;;;;;;3.05;1.00;;;25.20;99.90;;;;;;5044043;28;40533;-75
2022/08/08 11:40:23;;;;;;;3.92;1.17;;;24.60;99.90;;;;;;5045206;28;39598;-75
2022/08/08 11:42:50;;;;;;;1.52;0.65;;;24.40;99.90;;;;;;5035657;28;39444;-75
2022/08/08 11:45:20;;;;;;;2.42;1.00;;;24.40;99.90;;;;;;5045688;28;38245;-75
2022/08/08 11:47:47;;;;;;;1.25;0.60;;;24.90;99.90;;;;;;5065118;28;39026;-75
2022/08/08 11:50:18;;;;;;;2.38;0.68;;;25.50;99.90;;;;;;5040604;28;39382;-76
2022/08/08 11:52:45;;;;;;;1.48;0.90;;;26.00;99.90;;;;;;5041207;28;38328;-76
2022/08/08 11:55:19;;;;;;;5.35;0.75;;;26.10;99.90;;;;;;5048655;28;35881;-77
2022/08/08 11:57:45;;;;;;;2.33;0.60;;;25.90;99.90;;;;;;5031087;28;38423;-76
2022/08/08 12:00:16;;;;;;;2.03;0.85;;;25.30;99.90;;;;;;5038696;28;37442;-77
2022/08/08 12:02:53;;;;;;;1.75;0.60;;;24.90;99.90;;;;;;5039601;28;38755;-76
2022/08/08 12:05:31;;;;;;;1.85;0.68;;;24.50;99.90;;;;;;5052894;28;37886;-76
2022/08/08 12:07:57;;;;;;;3.22;1.00;;;24.90;99.90;;;;;;5046902;28;37663;-77
2022/08/08 12:10:26;;;;;;;2.25;0.70;;;25.20;99.90;;;;;;5044766;28;38633;-76
2022/08/08 12:13:05;;;;;;;2.70;1.00;;;25.20;99.90;;;;;;5051248;27;21692;-78
2022/08/08 12:15:34;;;;;;;2.60;0.60;;;25.70;99.90;;;;;;5038719;28;47413;-80
2022/08/08 12:18:13;;;;;;;2.38;0.77;;;26.20;99.90;;;;;;5045674;28;37802;-77
2022/08/08 12:20:40;;;;;;;2.58;0.95;;;26.40;99.90;;;;;;5050317;28;46930;-76
2022/08/08 12:23:07;;;;;;;1.70;0.70;;;26.60;99.90;;;;;;5045498;28;37150;-76
2022/08/08 12:25:33;;;;;;;2.83;0.75;;;26.90;99.90;;;;;;5060904;28;39007;-76
2022/08/08 12:28:14;;;;;;;5.78;0.80;;;26.80;99.90;;;;;;5043645;27;39677;-75
2022/08/08 12:30:42;;;;;;;0.40;0.40;;;27.00;99.90;;;;;;5048643;28;46012;-77
2022/08/08 12:33:17;;;;;;;1.83;0.73;;;27.10;99.90;;;;;;5075433;28;37056;-78
2022/08/08 12:35:44;;;;;;;1.35;0.50;;;27.40;99.90;;;;;;5042301;27;38230;-76
2022/08/08 12:38:13;;;;;;;4.20;0.90;;;27.50;99.90;;;;;;5054750;27;39908;-79
2022/08/08 12:40:48;;;;;;;2.13;0.82;;;27.80;99.90;;;;;;5045555;28;38268;-77
2022/08/08 12:43:15;;;;;;;1.95;0.70;;;27.90;99.90;;;;;;5042910;28;37131;-80
2022/08/08 12:45:42;;;;;;;2.47;0.50;;;27.20;99.90;;;;;;5035358;28;37060;-77
2022/08/08 12:48:23;;;;;;;4.75;0.80;;;26.40;99.90;;;;;;5041158;27;39381;-77
2022/08/08 12:50:55;;;;;;;3.67;0.90;;;25.90;99.90;;;;;;5043632;28;37188;-77
2022/08/08 12:53:30;;;;;;;1.88;0.75;;;25.70;99.90;;;;;;5042976;28;38053;-77
2022/08/08 12:56:03;;;;;;;1.40;0.55;;;25.90;99.90;;;;;;5036590;28;36346;-78
2022/08/08 12:58:43;;;;;;;3.10;0.80;;;25.80;99.90;;;;;;5036964;28;46946;-77
2022/08/08 13:01:11;;;;;;;0.80;0.50;;;26.20;99.90;;;;;;5034083;28;37592;-75
2022/08/08 13:03:44;;;;;;;1.60;0.65;;;27.00;99.90;;;;;;5039161;28;37643;-76
2022/08/08 13:06:17;;;;;;;1.38;0.55;;;27.60;99.90;;;;;;5042096;28;37755;-79
2022/08/08 13:08:44;;;;;;;1.20;0.60;;;27.80;99.90;;;;;;5036342;28;39636;-78
2022/08/08 13:11:25;;;;;;;2.95;0.52;;;27.40;99.90;;;;;;5045361;27;37369;-77
2022/08/08 13:14:00;;;;;;;1.70;0.60;;;26.70;99.90;;;;;;5054705;28;37936;-77
2022/08/08 13:16:27;;;;;;;1.73;0.68;;;26.30;99.90;;;;;;5044091;27;37037;-76
2022/08/08 13:18:59;;;;;;;0.95;0.60;;;25.80;99.90;;;;;;5044387;28;36096;-76
2022/08/08 13:21:25;;;;;;;1.88;0.70;;;25.20;99.90;;;;;;5042514;28;38843;-77
2022/08/08 13:23:51;;;;;;;1.42;0.77;;;25.30;99.90;;;;;;5042915;28;38733;-77
2022/08/08 13:26:17;;;;;;;2.33;0.80;;;25.90;99.90;;;;;;5042232;27;38139;-77
2022/08/08 13:28:43;;;;;;;2.85;1.15;;;26.40;99.90;;;;;;5041892;28;38680;-77
2022/08/08 13:31:11;;;;;;;0.90;0.55;;;26.60;99.90;;;;;;5038534;27;38672;-76